createdAt,value
2018-03-02T00:01:13.933Z,100223.69
2018-03-02T00:03:40.936Z,100224.84
2018-03-02T00:06:07.723Z,100229.03
2018-03-02T00:08:34.808Z,100223.90
2018-03-02T00:11:02.398Z,100222.70
2018-03-02T00:13:29.510Z,100223.17
2018-03-02T00:15:56.452Z,100217.23
2018-03-02T00:18:23.496Z,100211.11
2018-03-02T00:20:50.452Z,100215.59
2018-03-02T00:23:17.867Z,100219.86
2018-03-02T00:25:45.491Z,100211.50
2018-03-02T00:28:12.256Z,100205.91
2018-03-02T00:30:38.586Z,100202.48
2018-03-02T00:33:05.064Z,100199.38
2018-03-02T00:35:31.884Z,100202.92
2018-03-02T00:37:59.517Z,100184.78
2018-03-02T00:40:26.366Z,100192.59
2018-03-02T00:42:53.235Z,100190.74
2018-03-02T00:45:20.093Z,100187.58
2018-03-02T00:47:46.997Z,100180.69
2018-03-02T00:50:13.748Z,100173.22
2018-03-02T00:52:40.757Z,100177.04
2018-03-02T00:55:08.335Z,100175.39
2018-03-02T00:57:35.120Z,100171.34
2018-03-02T01:00:02.071Z,100177.04
2018-03-02T01:02:29.049Z,100176.98
2018-03-02T01:04:55.934Z,100172.12
2018-03-02T01:07:22.923Z,100176.53
2018-03-02T01:09:49.706Z,100179.77
2018-03-02T01:12:17.259Z,100179.50
2018-03-02T01:14:44.194Z,100176.50
2018-03-02T01:17:10.952Z,100173.48
2018-03-02T01:19:37.872Z,100174.91
2018-03-02T01:22:04.932Z,100172.34
2018-03-02T01:24:31.987Z,100167.44
2018-03-02T01:26:58.888Z,100172.12
2018-03-02T01:29:25.775Z,100157.43
2018-03-02T01:31:52.656Z,100150.00
2018-03-02T01:34:19.445Z,100143.47
2018-03-02T01:36:46.935Z,100143.39
2018-03-02T01:39:13.780Z,100140.73
2018-03-02T01:41:40.680Z,100141.99
2018-03-02T01:44:08.316Z,100139.75
2018-03-02T01:46:35.242Z,100136.80
2018-03-02T01:49:02.023Z,100142.53
2018-03-02T01:51:48.082Z,100135.63
2018-03-02T01:54:15.236Z,100130.65
2018-03-02T01:56:42.100Z,100126.72
2018-03-02T01:59:08.955Z,100125.35
2018-03-02T02:01:36.734Z,100118.10
2018-03-02T02:04:04.267Z,100116.07
2018-03-02T02:06:31.317Z,100117.33
2018-03-02T02:08:58.105Z,100120.51
2018-03-02T02:11:26.044Z,100112.19
2018-03-02T02:13:52.401Z,100108.21
2018-03-02T02:16:19.076Z,100114.92
2018-03-02T02:18:46.705Z,100109.41
2018-03-02T02:21:13.327Z,100104.17
2018-03-02T02:23:39.704Z,100107.73
2018-03-02T02:26:07.572Z,100105.16
2018-03-02T02:28:34.667Z,100100.13
2018-03-02T02:31:01.250Z,100095.50
2018-03-02T02:33:27.831Z,100093.69
2018-03-02T02:35:55.106Z,100081.36
2018-03-02T02:38:21.452Z,100086.26
2018-03-02T02:40:48.647Z,100069.62
2018-03-02T02:43:15.482Z,100066.63
2018-03-02T02:45:42.549Z,100062.64
2018-03-02T02:48:09.445Z,100053.27
2018-03-02T02:50:36.485Z,100058.50
2018-03-02T02:53:03.487Z,100065.53
2018-03-02T02:55:29.825Z,100062.86
2018-03-02T02:57:56.984Z,100069.57
2018-03-02T03:00:23.868Z,100063.95
2018-03-02T03:02:50.765Z,100064.89
2018-03-02T03:05:17.525Z,100070.72
2018-03-02T03:07:44.576Z,100064.89
2018-03-02T03:10:11.412Z,100060.24
2018-03-02T03:12:38.267Z,100062.16
2018-03-02T03:15:06.146Z,100052.33
2018-03-02T03:17:33.184Z,100053.31
2018-03-02T03:20:00.308Z,100052.27
2018-03-02T03:22:27.027Z,100049.81
2018-03-02T03:25:00.852Z,100048.19
2018-03-02T03:27:27.730Z,100048.84
2018-03-02T03:29:54.794Z,100042.27
2018-03-02T03:32:21.538Z,100039.86
2018-03-02T03:34:48.700Z,100040.94
2018-03-02T03:37:15.465Z,100045.38
2018-03-02T03:39:42.435Z,100038.86
2018-03-02T03:42:10.361Z,100032.69
2018-03-02T03:44:37.321Z,100026.91
2018-03-02T03:47:04.190Z,100028.39
2018-03-02T03:49:31.180Z,100021.24
2018-03-02T03:51:58.068Z,100009.27
2018-03-02T03:54:25.044Z,100006.62
2018-03-02T03:56:51.869Z,100004.53
2018-03-02T03:59:19.048Z,100009.55
2018-03-02T04:01:46.183Z,100009.17
2018-03-02T04:04:14.443Z,100002.45
2018-03-02T04:06:41.216Z,99998.50
2018-03-02T04:09:08.079Z,99997.19
2018-03-02T04:11:34.909Z,99999.17
2018-03-02T04:14:01.845Z,99995.26
2018-03-02T04:16:28.720Z,99990.06
2018-03-02T04:18:55.552Z,99987.42
2018-03-02T04:21:22.314Z,99974.31
2018-03-02T04:23:49.268Z,99976.08
2018-03-02T04:26:16.217Z,99984.25
2018-03-02T04:28:43.276Z,99975.97
2018-03-02T04:31:10.935Z,99974.14
2018-03-02T04:33:37.863Z,99968.13
2018-03-02T04:36:04.747Z,99951.81
2018-03-02T04:38:32.312Z,99956.22
2018-03-02T04:40:59.972Z,99932.95
2018-03-02T04:43:26.812Z,99926.13
2018-03-02T04:45:53.695Z,99933.80
2018-03-02T04:48:20.537Z,99933.20
2018-03-02T04:50:47.307Z,99931.58
2018-03-02T04:53:14.289Z,99935.66
2018-03-02T04:55:41.116Z,99938.23
2018-03-02T04:58:08.388Z,99940.37
2018-03-02T05:00:36.056Z,99944.64
2018-03-02T05:03:02.833Z,99949.52
2018-03-02T05:05:30.288Z,99947.87
2018-03-02T05:07:57.214Z,99938.11
2018-03-02T05:10:24.028Z,99948.20
2018-03-02T05:12:50.823Z,99942.95
2018-03-02T05:15:19.608Z,99945.64
2018-03-02T05:17:46.455Z,99949.23
2018-03-02T05:20:13.559Z,99926.88
2018-03-02T05:22:40.393Z,99922.39
2018-03-02T05:25:08.128Z,99916.50
2018-03-02T05:27:34.965Z,99925.73
2018-03-02T05:30:02.053Z,99925.16
2018-03-02T05:32:29.686Z,99921.84
2018-03-02T05:34:56.740Z,99919.50
2018-03-02T05:37:23.377Z,99932.52
2018-03-02T05:39:50.109Z,99930.87
2018-03-02T05:42:16.452Z,99920.75
2018-03-02T05:44:43.426Z,99920.36
2018-03-02T05:47:09.827Z,99912.63
2018-03-02T05:49:36.691Z,99901.94
2018-03-02T05:52:03.048Z,99906.48
2018-03-02T05:54:29.401Z,99901.33
2018-03-02T05:56:56.183Z,99907.48
2018-03-02T05:59:23.000Z,99908.17
2018-03-02T06:01:50.868Z,99904.55
2018-03-02T06:04:17.218Z,99912.67
2018-03-02T06:06:44.600Z,99907.48
2018-03-02T06:09:11.173Z,99893.45
2018-03-02T06:11:37.521Z,99900.16
2018-03-02T06:14:03.908Z,99905.45
2018-03-02T06:16:30.517Z,99908.80
2018-03-02T06:18:57.635Z,99908.05
2018-03-02T06:21:24.332Z,99909.77
2018-03-02T06:23:51.555Z,99916.64
2018-03-02T06:26:17.945Z,99912.06
2018-03-02T06:28:44.525Z,99907.62
2018-03-02T06:31:11.489Z,99905.05
2018-03-02T06:33:38.295Z,99892.05
2018-03-02T06:36:04.680Z,99897.73
2018-03-02T06:38:31.029Z,99899.25
2018-03-02T06:40:57.739Z,99894.31
2018-03-02T06:43:24.090Z,99883.09
2018-03-02T06:45:50.437Z,99892.50
2018-03-02T06:48:17.064Z,99889.81
2018-03-02T06:50:43.408Z,99890.36
2018-03-02T06:53:10.207Z,99888.22
2018-03-02T06:55:36.592Z,99882.53
2018-03-02T06:58:02.953Z,99882.24
2018-03-02T07:00:30.170Z,99887.56
2018-03-02T07:02:56.530Z,99881.00
2018-03-02T07:05:22.960Z,99881.73
2018-03-02T07:07:49.516Z,99888.53
2018-03-02T07:10:15.856Z,99891.61
2018-03-02T07:12:42.990Z,99889.93
2018-03-02T07:15:09.460Z,99882.11
2018-03-02T07:17:36.564Z,99893.22
2018-03-02T07:20:03.475Z,99890.70
2018-03-02T07:22:30.618Z,99886.77
2018-03-02T07:24:58.141Z,99875.63
2018-03-02T07:27:24.525Z,99882.88
2018-03-02T07:29:51.649Z,99870.70
2018-03-02T07:32:18.436Z,99883.00
2018-03-02T07:34:45.533Z,99863.52
2018-03-02T07:37:12.160Z,99861.89
2018-03-02T07:39:38.635Z,99855.57
2018-03-02T07:42:05.003Z,99862.02
2018-03-02T07:44:32.273Z,99860.88
2018-03-02T07:46:58.873Z,99855.11
2018-03-02T07:49:25.253Z,99863.41
2018-03-02T07:51:51.713Z,99855.25
2018-03-02T07:54:18.697Z,99859.89
2018-03-02T07:56:45.072Z,99857.23
2018-03-02T07:59:12.299Z,99857.72
2018-03-02T08:01:39.225Z,99862.48
2018-03-02T08:04:06.098Z,99863.53
2018-03-02T08:06:32.453Z,99859.36
2018-03-02T08:08:59.769Z,99861.72
2018-03-02T08:11:26.941Z,99857.58
2018-03-02T08:13:54.308Z,99861.12
2018-03-02T08:16:21.437Z,99864.08
2018-03-02T08:18:49.215Z,99861.09
2018-03-02T08:21:16.089Z,99862.25
2018-03-02T08:23:42.909Z,99870.01
2018-03-02T08:26:09.802Z,99873.03
2018-03-02T08:28:36.718Z,99868.99
2018-03-02T08:31:03.053Z,99866.61
2018-03-02T08:33:29.832Z,99859.13
2018-03-02T08:35:57.352Z,99868.25
2018-03-02T08:38:24.123Z,99865.41
2018-03-02T08:40:50.821Z,99862.94
2018-03-02T08:43:17.737Z,99865.69
2018-03-02T08:45:44.700Z,99861.75
2018-03-02T08:48:12.436Z,99868.44
2018-03-02T08:50:39.287Z,99875.67
2018-03-02T08:53:06.137Z,99876.80
2018-03-02T08:55:32.965Z,99889.13
2018-03-02T08:57:59.333Z,99881.44
2018-03-02T09:00:26.775Z,99880.67
2018-03-02T09:02:53.544Z,99873.68
2018-03-02T09:05:21.093Z,99867.78
2018-03-02T09:07:47.928Z,99878.93
2018-03-02T09:10:14.743Z,99880.86
2018-03-02T09:12:48.455Z,99873.81
2018-03-02T09:15:15.347Z,99874.55
2018-03-02T09:17:42.806Z,99881.64
2018-03-02T09:20:09.937Z,99874.20
2018-03-02T09:22:36.589Z,99875.57
2018-03-02T09:25:03.696Z,99883.20
2018-03-02T09:27:30.044Z,99881.95
2018-03-02T09:29:57.220Z,99878.67
2018-03-02T09:32:23.904Z,99880.80
2018-03-02T09:34:51.800Z,99876.09
2018-03-02T09:37:18.588Z,99871.20
2018-03-02T09:39:45.633Z,99874.77
2018-03-02T09:42:12.437Z,99881.04
2018-03-02T09:44:39.447Z,99885.41
2018-03-02T09:47:06.231Z,99888.84
2018-03-02T09:49:33.970Z,99883.76
2018-03-02T09:52:00.721Z,99893.23
2018-03-02T09:54:27.962Z,99895.22
2018-03-02T09:56:54.743Z,99888.95
2018-03-02T09:59:21.833Z,99893.53
2018-03-02T10:01:48.609Z,99886.27
2018-03-02T10:04:15.878Z,99890.36
2018-03-02T10:06:44.172Z,99896.93
2018-03-02T10:09:11.721Z,99895.03
2018-03-02T10:11:38.591Z,99891.34
2018-03-02T10:14:06.165Z,99883.15
2018-03-02T10:16:33.104Z,99888.92
2018-03-02T10:19:00.527Z,99886.43
2018-03-02T10:21:27.572Z,99886.87
2018-03-02T10:23:54.429Z,99884.30
2018-03-02T10:26:21.614Z,99878.17
2018-03-02T10:28:49.066Z,99869.53
2018-03-02T10:31:15.739Z,99869.53
2018-03-02T10:33:42.093Z,99868.98
2018-03-02T10:36:08.544Z,99863.92
2018-03-02T10:38:35.325Z,99861.34
2018-03-02T10:41:02.877Z,99853.00
2018-03-02T10:43:29.816Z,99858.25
2018-03-02T10:45:56.676Z,99851.55
2018-03-02T10:48:23.520Z,99856.80
2018-03-02T10:50:50.471Z,99862.23
2018-03-02T10:53:17.347Z,99858.11
2018-03-02T10:55:44.080Z,99853.91
2018-03-02T10:58:11.214Z,99851.64
2018-03-02T11:00:51.191Z,99856.89
2018-03-02T11:03:22.363Z,99854.58
2018-03-02T11:05:50.063Z,99851.88
2018-03-02T11:08:16.811Z,99845.14
2018-03-02T11:10:43.570Z,99854.58
2018-03-02T11:13:10.443Z,99860.58
2018-03-02T11:15:37.303Z,99852.82
2018-03-02T11:18:04.985Z,99852.80
2018-03-02T11:20:32.750Z,99860.31
2018-03-02T11:23:00.271Z,99854.52
2018-03-02T11:25:27.133Z,99857.73
2018-03-02T11:27:53.988Z,99859.71
2018-03-02T11:30:21.231Z,99855.18
2018-03-02T11:32:54.711Z,99857.84
2018-03-02T11:35:21.156Z,99850.57
2018-03-02T11:37:47.506Z,99844.82
2018-03-02T11:40:14.041Z,99845.66
2018-03-02T11:42:40.389Z,99841.34
2018-03-02T11:45:07.488Z,99830.69
2018-03-02T11:47:34.271Z,99830.42
2018-03-02T11:50:00.603Z,99831.91
2018-03-02T11:52:27.328Z,99831.59
2018-03-02T11:54:53.804Z,99824.84
2018-03-02T11:57:20.157Z,99824.83
2018-03-02T11:59:46.589Z,99823.06
2018-03-02T12:02:13.104Z,99816.40
2018-03-02T12:04:39.900Z,99817.19
2018-03-02T12:07:06.979Z,99809.26
2018-03-02T12:09:33.745Z,99813.48
2018-03-02T12:12:00.116Z,99815.11
2018-03-02T12:14:26.475Z,99816.73
2018-03-02T12:16:54.043Z,99820.45
2018-03-02T12:19:20.366Z,99820.08
2018-03-02T12:21:46.703Z,99821.89
2018-03-02T12:24:13.242Z,99831.38
2018-03-02T12:26:40.287Z,99831.80
2018-03-02T12:29:07.086Z,99834.94
2018-03-02T12:31:34.104Z,99827.28
2018-03-02T12:34:01.656Z,99828.53
2018-03-02T12:36:29.410Z,99831.67
2018-03-02T12:38:56.271Z,99824.61
2018-03-02T12:41:23.245Z,99813.20
2018-03-02T12:43:50.073Z,99813.66
2018-03-02T12:46:17.660Z,99816.89
2018-03-02T12:48:45.465Z,99819.95
2018-03-02T12:51:12.220Z,99820.91
2018-03-02T12:53:39.101Z,99823.30
2018-03-02T12:56:06.016Z,99815.73
2018-03-02T12:58:32.875Z,99818.27
2018-03-02T13:00:59.935Z,99811.29
2018-03-02T13:03:26.810Z,99813.75
2018-03-02T13:05:53.745Z,99798.70
2018-03-02T13:08:20.467Z,99800.38
2018-03-02T13:10:47.252Z,99800.19
2018-03-02T13:13:14.872Z,99808.84
2018-03-02T13:15:41.732Z,99796.05
2018-03-02T13:18:09.352Z,99787.72
2018-03-02T13:20:36.173Z,99788.22
2018-03-02T13:23:03.094Z,99784.72
2018-03-02T13:25:29.955Z,99787.34
2018-03-02T13:28:15.244Z,99773.48
2018-03-02T13:30:42.820Z,99772.64
2018-03-02T13:33:29.001Z,99775.59
2018-03-02T13:35:56.548Z,99771.24
2018-03-02T13:38:23.378Z,99773.23
2018-03-02T13:44:00.362Z,99762.88
2018-03-02T13:46:27.205Z,99753.03
2018-03-02T13:49:12.579Z,99758.88
2018-03-02T13:51:39.424Z,99761.67
2018-03-02T13:54:06.406Z,99766.38
2018-03-02T13:56:52.493Z,99770.83
2018-03-02T13:59:19.188Z,99770.70
2018-03-02T14:01:46.225Z,99776.23
2018-03-02T14:04:31.933Z,99779.30
2018-03-02T14:06:58.881Z,99789.05
2018-03-02T14:09:25.260Z,99800.83
2018-03-02T14:11:52.016Z,99804.58
2018-03-02T14:14:19.562Z,99803.85
2018-03-02T14:16:46.441Z,99795.78
2018-03-02T14:19:13.240Z,99801.81
2018-03-02T14:21:39.937Z,99799.53
2018-03-02T14:24:06.921Z,99786.17
2018-03-02T14:26:33.961Z,99793.94
2018-03-02T14:29:07.542Z,99792.42
2018-03-02T14:31:34.085Z,99791.01
2018-03-02T14:34:00.492Z,99794.07
2018-03-02T14:36:27.856Z,99793.41
2018-03-02T14:38:54.972Z,99792.82
2018-03-02T14:41:22.060Z,99796.45
2018-03-02T14:43:49.529Z,99790.95
2018-03-02T14:46:17.084Z,99790.80
2018-03-02T14:48:43.464Z,99791.66
2018-03-02T14:51:10.120Z,99802.67
2018-03-02T14:53:36.604Z,99797.77
2018-03-02T14:56:02.988Z,99799.61
2018-03-02T14:58:29.384Z,99808.89
2018-03-02T15:00:56.577Z,99807.19
2018-03-02T15:03:23.281Z,99808.59
2018-03-02T15:05:50.381Z,99809.09
2018-03-02T15:08:16.836Z,99798.56
2018-03-02T15:10:43.282Z,99805.93
2018-03-02T15:13:10.070Z,99799.61
2018-03-02T15:15:37.165Z,99810.34
2018-03-02T15:18:03.504Z,99803.53
2018-03-02T15:20:30.364Z,99802.22
2018-03-02T15:22:57.238Z,99800.41
2018-03-02T15:25:24.292Z,99801.26
2018-03-02T15:27:51.587Z,99802.05
2018-03-02T15:30:18.290Z,99806.33
2018-03-02T15:32:45.518Z,99811.06
2018-03-02T15:35:12.412Z,99805.34
2018-03-02T15:37:40.318Z,99805.60
2018-03-02T15:40:06.892Z,99807.81
2018-03-02T15:42:33.699Z,99801.72
2018-03-02T15:45:00.584Z,99798.62
2018-03-02T15:47:27.458Z,99797.84
2018-03-02T15:49:54.552Z,99796.85
2018-03-02T15:52:21.355Z,99795.77
2018-03-02T15:54:49.793Z,99792.91
2018-03-02T15:57:16.768Z,99793.40
2018-03-02T15:59:43.663Z,99800.23
2018-03-02T16:02:11.220Z,99795.40
2018-03-02T16:04:38.731Z,99790.70
2018-03-02T16:07:05.110Z,99790.80
2018-03-02T16:09:31.608Z,99787.17
2018-03-02T16:11:58.256Z,99790.23
2018-03-02T16:14:25.111Z,99792.88
2018-03-02T16:16:51.467Z,99794.02
2018-03-02T16:19:18.224Z,99790.56
2018-03-02T16:21:44.841Z,99796.65
2018-03-02T16:24:11.184Z,99792.50
2018-03-02T16:26:37.628Z,99803.45
2018-03-02T16:29:04.776Z,99803.00
2018-03-02T16:31:31.124Z,99801.69
2018-03-02T16:33:57.998Z,99811.49
2018-03-02T16:36:25.112Z,99809.13
2018-03-02T16:38:52.276Z,99811.36
2018-03-02T16:41:19.347Z,99814.88
2018-03-02T16:43:45.671Z,99814.45
2018-03-02T16:46:12.065Z,99815.97
2018-03-02T16:48:38.952Z,99821.03
2018-03-02T16:51:05.728Z,99821.09
2018-03-02T16:53:32.200Z,99826.49
2018-03-02T16:55:59.191Z,99833.11
2018-03-02T16:58:25.568Z,99830.70
2018-03-02T17:00:52.464Z,99843.94
2018-03-02T17:03:19.005Z,99839.03
2018-03-02T17:05:45.385Z,99838.50
2018-03-02T17:08:12.496Z,99852.92
2018-03-02T17:10:39.451Z,99848.47
2018-03-02T17:13:06.631Z,99841.09
2018-03-02T17:15:33.461Z,99848.50
2018-03-02T17:17:59.822Z,99846.95
2018-03-02T17:20:26.456Z,99852.55
2018-03-02T17:22:53.109Z,99845.64
2018-03-02T17:25:20.239Z,99846.09
2018-03-02T17:27:47.361Z,99846.36
2018-03-02T17:30:13.842Z,99849.22
2018-03-02T17:32:41.263Z,99858.60
2018-03-02T17:35:07.634Z,99863.94
2018-03-02T17:37:34.583Z,99869.14
2018-03-02T17:40:01.656Z,99866.78
2018-03-02T17:42:29.291Z,99869.06
2018-03-02T17:44:56.041Z,99880.13
2018-03-02T17:47:22.908Z,99881.48
2018-03-02T17:49:49.668Z,99881.06
2018-03-02T17:52:17.237Z,99881.62
2018-03-02T17:54:44.866Z,99886.13
2018-03-02T17:57:11.852Z,99893.00
2018-03-02T17:59:38.956Z,99880.86
2018-03-02T18:02:06.144Z,99874.58
2018-03-02T18:04:33.084Z,99880.03
2018-03-02T18:07:00.041Z,99877.25
2018-03-02T18:09:27.788Z,99868.88
2018-03-02T18:11:54.923Z,99868.34
2018-03-02T18:14:22.477Z,99865.75
2018-03-02T18:16:50.703Z,99863.56
2018-03-02T18:19:20.240Z,99864.17
2018-03-02T18:21:47.159Z,99866.81
2018-03-02T18:24:13.944Z,99872.07
2018-03-02T18:26:41.051Z,99875.89
2018-03-02T18:29:07.736Z,99875.64
2018-03-02T18:31:35.293Z,99872.23
2018-03-02T18:34:02.412Z,99868.77
2018-03-02T18:36:36.125Z,99874.70
2018-03-02T18:39:02.703Z,99881.83
2018-03-02T18:41:29.815Z,99879.28
2018-03-02T18:43:56.287Z,99884.75
2018-03-02T18:46:23.121Z,99882.38
2018-03-02T18:48:50.165Z,99874.95
2018-03-02T18:51:16.960Z,99874.33
2018-03-02T18:53:43.865Z,99882.06
2018-03-02T18:56:11.317Z,99882.77
2018-03-02T18:58:37.738Z,99893.14
2018-03-02T19:01:04.220Z,99895.17
2018-03-02T19:03:31.456Z,99898.64
2018-03-02T19:05:58.329Z,99902.46
2018-03-02T19:08:25.461Z,99902.84
2018-03-02T19:10:52.056Z,99913.26
2018-03-02T19:13:19.045Z,99907.44
2018-03-02T19:15:45.896Z,99912.94
2018-03-02T19:18:12.825Z,99915.09
2018-03-02T19:20:39.616Z,99913.23
2018-03-02T19:23:05.989Z,99922.09
2018-03-02T19:25:32.668Z,99917.84
2018-03-02T19:27:59.226Z,99924.16
2018-03-02T19:30:25.920Z,99926.23
2018-03-02T19:32:53.014Z,99925.87
2018-03-02T19:35:19.382Z,99924.04
2018-03-02T19:37:46.488Z,99918.51
2018-03-02T19:40:13.365Z,99916.61
2018-03-02T19:42:39.817Z,99910.72
2018-03-02T19:45:06.172Z,99917.64
2018-03-02T19:47:33.797Z,99914.13
2018-03-02T19:50:00.220Z,99911.94
2018-03-02T19:52:26.621Z,99910.39
2018-03-02T19:54:54.149Z,99911.48
2018-03-02T19:57:22.036Z,99903.23
2018-03-02T19:59:48.610Z,99906.22
2018-03-02T20:02:15.432Z,99915.15
2018-03-02T20:04:42.574Z,99912.17
2018-03-02T20:07:09.255Z,99908.88
2018-03-02T20:09:35.841Z,99921.85
2018-03-02T20:12:02.320Z,99924.25
2018-03-02T20:14:29.445Z,99920.90
2018-03-02T20:16:56.544Z,99921.80
2018-03-02T20:19:22.953Z,99919.47
2018-03-02T20:21:50.288Z,99915.33
2018-03-02T20:24:16.737Z,99923.28
2018-03-02T20:26:43.131Z,99919.63
2018-03-02T20:29:10.418Z,99926.19
2018-03-02T20:31:36.822Z,99931.58
2018-03-02T20:34:03.229Z,99934.45
2018-03-02T20:36:30.904Z,99939.09
2018-03-02T20:38:58.023Z,99936.23
2018-03-02T20:41:24.400Z,99940.16
2018-03-02T20:43:50.987Z,99937.87
2018-03-02T20:46:17.352Z,99930.91
2018-03-02T20:48:43.750Z,99931.44
2018-03-02T20:51:10.688Z,99924.37
2018-03-02T20:53:37.066Z,99926.88
2018-03-02T20:56:03.452Z,99920.41
2018-03-02T20:58:30.053Z,99912.47
2018-03-02T21:00:56.620Z,99913.17
2018-03-02T21:03:23.743Z,99914.12
2018-03-02T21:05:50.267Z,99922.63
2018-03-02T21:08:16.896Z,99918.08
2018-03-02T21:10:43.295Z,99915.52
2018-03-02T21:13:10.613Z,99912.80
2018-03-02T21:15:37.272Z,99911.92
2018-03-02T21:18:03.652Z,99910.60
2018-03-02T21:20:30.269Z,99899.76
2018-03-02T21:22:57.784Z,99909.84
2018-03-02T21:25:24.367Z,99902.25
2018-03-02T21:27:50.969Z,99903.03
2018-03-02T21:30:17.587Z,99898.72
2018-03-02T21:32:44.089Z,99890.01
2018-03-02T21:35:10.453Z,99887.65
2018-03-02T21:37:37.579Z,99883.25
2018-03-02T21:40:04.145Z,99898.34
2018-03-02T21:42:30.556Z,99894.89
2018-03-02T21:44:59.268Z,99891.97
2018-03-02T21:47:26.418Z,99892.45
2018-03-02T21:49:54.725Z,99897.44
2018-03-02T21:52:21.105Z,99900.14
2018-03-02T21:54:47.475Z,99897.56
2018-03-02T21:57:14.712Z,99904.61
2018-03-02T21:59:41.096Z,99900.23
2018-03-02T22:02:07.499Z,99899.34
2018-03-02T22:04:34.454Z,99902.73
2018-03-02T22:07:01.560Z,99905.45
2018-03-02T22:09:28.108Z,99906.92
2018-03-02T22:11:54.805Z,99897.18
2018-03-02T22:14:21.953Z,99902.10
2018-03-02T22:16:49.582Z,99902.88
2018-03-02T22:19:16.366Z,99896.59
2018-03-02T22:21:43.999Z,99899.94
2018-03-02T22:24:10.585Z,99894.50
2018-03-02T22:26:36.974Z,99893.16
2018-03-02T22:29:03.520Z,99890.50
2018-03-02T22:31:30.177Z,99887.69
2018-03-02T22:33:56.549Z,99882.73
2018-03-02T22:36:23.140Z,99884.30
2018-03-02T22:38:50.000Z,99888.17
2018-03-02T22:41:16.375Z,99885.05
2018-03-02T22:43:42.960Z,99885.77
2018-03-02T22:46:09.352Z,99884.43
2018-03-02T22:48:35.890Z,99886.02
2018-03-02T22:51:03.210Z,99888.65
2018-03-02T22:53:29.916Z,99885.53
2018-03-02T22:55:56.654Z,99881.09
2018-03-02T22:58:23.029Z,99887.58
2018-03-02T23:00:49.531Z,99883.35
2018-03-02T23:03:16.132Z,99879.83
2018-03-02T23:05:42.514Z,99880.23
2018-03-02T23:08:08.869Z,99875.76
2018-03-02T23:10:35.580Z,99879.38
2018-03-02T23:13:02.173Z,99875.62
2018-03-02T23:15:28.535Z,99872.44
2018-03-02T23:17:55.181Z,99869.97
2018-03-02T23:20:21.800Z,99869.21
2018-03-02T23:22:48.163Z,99865.13
2018-03-02T23:25:15.575Z,99869.93
2018-03-02T23:27:42.065Z,99867.27
2018-03-02T23:30:09.164Z,99863.51
2018-03-02T23:32:35.742Z,99865.94
2018-03-02T23:35:03.914Z,99864.21
2018-03-02T23:37:30.578Z,99868.36
2018-03-02T23:39:56.932Z,99868.75
2018-03-02T23:42:24.166Z,99871.01
2018-03-02T23:44:50.686Z,99878.70
2018-03-02T23:47:17.052Z,99871.82
2018-03-02T23:49:43.562Z,99875.23
2018-03-02T23:52:10.216Z,99873.42
2018-03-02T23:54:36.549Z,99869.97
2018-03-02T23:57:03.090Z,99865.62
2018-03-02T23:59:29.479Z,99867.27
